Time;durP1;ratioP1;P1;durP2;ratioP2;P2;SDS_P1;SDS_P2;PMS_P1;PMS_P2;Temp;Humidity;BMP_temperature;BMP_pressure;BME280_temperature;BME280_humidity;BME280_pressure;Samples;Min_cycle;Max_cycle;Signal;HPM_P1;HPM_P2
2020/12/06 00:00:59;;;;;;;8.80;6.73;;;;;;;;;;5103604;28;20425;-55
2020/12/06 00:03:25;;;;;;;9.07;7.30;;;;;;;;;;5097135;27;20481;-57
2020/12/06 00:05:51;;;;;;;8.80;7.27;;;;;;;;;;5097193;28;20461;-56
2020/12/06 00:08:17;;;;;;;7.50;6.70;;;;;;;;;;5101344;28;20444;-56
2020/12/06 00:10:43;;;;;;;6.87;6.13;;;;;;;;;;5112298;28;20178;-55
2020/12/06 00:13:09;;;;;;;6.83;5.80;;;;;;;;;;5104472;28;20477;-56
2020/12/06 00:15:35;;;;;;;7.47;6.40;;;;;;;;;;5106669;28;20437;-56
2020/12/06 00:18:01;;;;;;;8.20;6.77;;;;;;;;;;5099095;28;20436;-56
2020/12/06 00:20:27;;;;;;;6.53;5.87;;;;;;;;;;5075995;28;20184;-55
2020/12/06 00:22:53;;;;;;;8.10;6.60;;;;;;;;;;5099671;28;20789;-55
2020/12/06 00:25:19;;;;;;;7.57;6.40;;;;;;;;;;5108209;28;20408;-55
2020/12/06 00:27:45;;;;;;;7.93;6.20;;;;;;;;;;5094774;28;20540;-56
2020/12/06 00:30:11;;;;;;;7.00;6.30;;;;;;;;;;5103160;27;20551;-56
2020/12/06 00:32:38;;;;;;;8.80;6.60;;;;;;;;;;5094453;28;20180;-56
2020/12/06 00:35:05;;;;;;;9.80;7.20;;;;;;;;;;5098531;28;20441;-56
2020/12/06 00:37:31;;;;;;;7.63;5.47;;;;;;;;;;5098822;28;20441;-56
2020/12/06 00:39:57;;;;;;;8.20;6.07;;;;;;;;;;5109440;27;20524;-55
2020/12/06 00:42:23;;;;;;;7.23;6.53;;;;;;;;;;5101366;28;20184;-55
2020/12/06 00:44:49;;;;;;;9.07;6.60;;;;;;;;;;5092068;28;20190;-55
2020/12/06 00:47:15;;;;;;;6.73;6.03;;;;;;;;;;5097706;28;20466;-56
2020/12/06 00:49:41;;;;;;;7.83;6.87;;;;;;;;;;5100797;28;20553;-57
2020/12/06 00:52:07;;;;;;;6.73;6.03;;;;;;;;;;5097175;28;20896;-55
2020/12/06 00:54:33;;;;;;;7.63;6.60;;;;;;;;;;5102963;28;20208;-56
2020/12/06 00:56:59;;;;;;;6.90;6.00;;;;;;;;;;5092224;28;20226;-54
2020/12/06 00:59:26;;;;;;;7.97;6.20;;;;;;;;;;5109189;27;20546;-56
2020/12/06 01:01:52;;;;;;;7.77;6.03;;;;;;;;;;5103240;27;20486;-56
2020/12/06 01:04:18;;;;;;;7.37;6.20;;;;;;;;;;5095182;28;20453;-55
2020/12/06 01:06:44;;;;;;;8.07;6.63;;;;;;;;;;5099268;28;20456;-55
2020/12/06 01:09:10;;;;;;;6.53;5.87;;;;;;;;;;5100864;28;20880;-55
2020/12/06 01:11:36;;;;;;;7.43;6.60;;;;;;;;;;5094264;28;21003;-56
2020/12/06 01:14:02;;;;;;;7.97;6.80;;;;;;;;;;5091833;28;20497;-56
2020/12/06 01:16:28;;;;;;;7.83;6.60;;;;;;;;;;5094974;28;20428;-56
2020/12/06 01:18:55;;;;;;;7.67;6.43;;;;;;;;;;5097949;28;20486;-56
2020/12/06 01:21:20;;;;;;;7.57;6.43;;;;;;;;;;5099961;28;20503;-55
2020/12/06 01:23:46;;;;;;;6.87;6.00;;;;;;;;;;5098381;28;20909;-56
2020/12/06 01:26:13;;;;;;;7.40;6.27;;;;;;;;;;5111619;28;20199;-55
2020/12/06 01:28:39;;;;;;;7.73;6.93;;;;;;;;;;5106176;27;20267;-56
2020/12/06 01:31:08;;;;;;;8.87;7.47;;;;;;;;;;5110832;27;20457;-57
2020/12/06 01:33:34;;;;;;;6.77;6.07;;;;;;;;;;5101249;28;20424;-55
2020/12/06 01:36:00;;;;;;;6.97;5.93;;;;;;;;;;5111205;28;20452;-55
2020/12/06 01:38:26;;;;;;;8.33;7.30;;;;;;;;;;5106791;28;20432;-55
2020/12/06 01:40:52;;;;;;;7.63;6.83;;;;;;;;;;5111474;28;20868;-56
2020/12/06 01:43:18;;;;;;;8.13;7.27;;;;;;;;;;5111367;28;20566;-56
2020/12/06 01:45:44;;;;;;;7.73;5.90;;;;;;;;;;5105426;27;20507;-55
2020/12/06 01:48:10;;;;;;;8.73;6.93;;;;;;;;;;5092660;28;20470;-55
2020/12/06 01:50:37;;;;;;;7.47;6.47;;;;;;;;;;5096395;28;20434;-56
2020/12/06 01:53:04;;;;;;;7.27;6.10;;;;;;;;;;5098947;28;20766;-56
2020/12/06 01:55:30;;;;;;;9.10;7.03;;;;;;;;;;5108507;28;20425;-55
2020/12/06 01:58:07;;;;;;;6.93;6.03;;;;;;;;;;5093169;28;20417;-55
2020/12/06 02:00:33;;;;;;;7.70;6.90;;;;;;;;;;5110084;28;20520;-55
2020/12/06 02:03:00;;;;;;;7.53;6.60;;;;;;;;;;5094346;27;20497;-55
2020/12/06 02:05:27;;;;;;;6.87;6.17;;;;;;;;;;5096038;28;20425;-55
2020/12/06 02:07:57;;;;;;;7.97;6.87;;;;;;;;;;5093941;28;20461;-56
2020/12/06 02:10:23;;;;;;;7.50;6.50;;;;;;;;;;5107209;28;20409;-55
2020/12/06 02:12:49;;;;;;;7.63;6.47;;;;;;;;;;5096796;28;20424;-55
2020/12/06 02:15:15;;;;;;;7.83;6.10;;;;;;;;;;5092986;28;20188;-56
2020/12/06 02:17:41;;;;;;;7.77;6.90;;;;;;;;;;5077564;28;20950;-56
2020/12/06 02:20:07;;;;;;;6.97;6.27;;;;;;;;;;5095882;28;23078;-56
2020/12/06 02:22:33;;;;;;;8.07;6.43;;;;;;;;;;5098697;28;20425;-55
2020/12/06 02:24:59;;;;;;;8.80;7.10;;;;;;;;;;5100147;28;20452;-55
2020/12/06 02:27:25;;;;;;;8.27;6.83;;;;;;;;;;5090664;28;20453;-56
2020/12/06 02:29:51;;;;;;;7.93;7.00;;;;;;;;;;5106091;28;20622;-55
2020/12/06 02:32:17;;;;;;;7.83;6.63;;;;;;;;;;5098543;28;20207;-57
2020/12/06 02:34:43;;;;;;;7.67;6.73;;;;;;;;;;5099678;28;20207;-56
2020/12/06 02:37:09;;;;;;;9.57;7.33;;;;;;;;;;5098916;28;20190;-55
2020/12/06 02:39:35;;;;;;;8.80;7.53;;;;;;;;;;5103716;28;20214;-56
2020/12/06 02:42:01;;;;;;;8.23;6.97;;;;;;;;;;5111952;28;20501;-55
2020/12/06 02:44:27;;;;;;;9.40;7.20;;;;;;;;;;5078901;28;20528;-57
2020/12/06 02:46:53;;;;;;;7.57;6.73;;;;;;;;;;5100948;28;20548;-55
2020/12/06 02:49:19;;;;;;;8.90;6.90;;;;;;;;;;5103815;28;20196;-55
2020/12/06 02:51:45;;;;;;;7.33;6.47;;;;;;;;;;5100695;28;20994;-57
2020/12/06 02:54:11;;;;;;;8.13;6.73;;;;;;;;;;5097454;28;20199;-55
2020/12/06 02:56:37;;;;;;;8.27;6.80;;;;;;;;;;5113114;28;20197;-56
2020/12/06 02:59:03;;;;;;;9.10;6.93;;;;;;;;;;5116853;27;20762;-55
2020/12/06 03:01:30;;;;;;;8.17;6.80;;;;;;;;;;5100578;28;20483;-55
2020/12/06 03:03:56;;;;;;;8.33;7.20;;;;;;;;;;5101564;28;20473;-56
2020/12/06 03:06:22;;;;;;;9.33;6.77;;;;;;;;;;5103140;28;21079;-55
2020/12/06 03:08:48;;;;;;;7.93;6.97;;;;;;;;;;5079112;28;20430;-56
2020/12/06 03:11:14;;;;;;;8.77;7.43;;;;;;;;;;5108266;28;20424;-55
2020/12/06 03:13:40;;;;;;;7.40;6.27;;;;;;;;;;5095956;28;20968;-55
2020/12/06 03:16:06;;;;;;;7.30;6.23;;;;;;;;;;5109686;28;20440;-56
2020/12/06 03:18:32;;;;;;;6.90;6.17;;;;;;;;;;5098573;28;20225;-55
2020/12/06 03:20:59;;;;;;;8.97;6.70;;;;;;;;;;5101409;28;20437;-56
2020/12/06 03:23:25;;;;;;;9.03;7.10;;;;;;;;;;5101579;28;20436;-56
2020/12/06 03:25:51;;;;;;;6.90;6.13;;;;;;;;;;5100970;28;20742;-55
2020/12/06 03:28:18;;;;;;;7.00;6.30;;;;;;;;;;5104714;27;20192;-55
2020/12/06 03:30:44;;;;;;;6.97;5.93;;;;;;;;;;5114007;28;20424;-56
2020/12/06 03:33:10;;;;;;;7.83;7.03;;;;;;;;;;5096789;28;20425;-59
2020/12/06 03:35:36;;;;;;;8.10;7.23;;;;;;;;;;5102183;28;20447;-57
2020/12/06 03:38:02;;;;;;;8.73;7.07;;;;;;;;;;5099418;28;20494;-55
2020/12/06 03:40:28;;;;;;;8.73;7.00;;;;;;;;;;5103500;28;20426;-58
2020/12/06 03:42:54;;;;;;;7.70;6.57;;;;;;;;;;5108781;28;20491;-55
2020/12/06 03:45:20;;;;;;;8.63;7.00;;;;;;;;;;5112737;28;20172;-55
2020/12/06 03:47:47;;;;;;;6.87;5.70;;;;;;;;;;5100850;28;20499;-56
2020/12/06 03:50:13;;;;;;;7.37;6.33;;;;;;;;;;5100145;28;20481;-55
2020/12/06 03:52:39;;;;;;;7.30;6.60;;;;;;;;;;5097412;28;20421;-56
2020/12/06 03:55:05;;;;;;;8.23;6.73;;;;;;;;;;5101003;28;20416;-57
2020/12/06 03:57:31;;;;;;;7.30;6.47;;;;;;;;;;5100142;27;20902;-55
2020/12/06 03:59:57;;;;;;;8.43;6.40;;;;;;;;;;5113358;28;20420;-55
2020/12/06 04:02:24;;;;;;;7.03;6.00;;;;;;;;;;5101028;28;20494;-55
2020/12/06 04:04:50;;;;;;;7.63;6.37;;;;;;;;;;5099177;27;21263;-57
2020/12/06 04:07:16;;;;;;;6.80;6.10;;;;;;;;;;5099123;28;20490;-56
2020/12/06 04:09:41;;;;;;;10.57;6.40;;;;;;;;;;5107475;28;20441;-55
2020/12/06 04:12:07;;;;;;;8.03;6.60;;;;;;;;;;5093245;28;20194;-56
2020/12/06 04:14:33;;;;;;;8.17;6.57;;;;;;;;;;5109211;28;20190;-58
2020/12/06 04:17:00;;;;;;;7.13;6.10;;;;;;;;;;5099655;28;20191;-59
2020/12/06 04:19:26;;;;;;;7.17;6.10;;;;;;;;;;5097870;28;20432;-56
2020/12/06 04:21:52;;;;;;;6.67;5.93;;;;;;;;;;5098315;28;20691;-55
2020/12/06 04:24:18;;;;;;;7.60;6.73;;;;;;;;;;5105477;28;20194;-55
2020/12/06 04:26:44;;;;;;;8.13;7.07;;;;;;;;;;5109655;28;20523;-57
2020/12/06 04:29:10;;;;;;;6.73;6.03;;;;;;;;;;5123684;27;20478;-56
2020/12/06 04:31:36;;;;;;;7.77;6.33;;;;;;;;;;5106043;28;20195;-57
2020/12/06 04:34:02;;;;;;;7.47;6.30;;;;;;;;;;5100453;28;20207;-55
2020/12/06 04:36:28;;;;;;;7.53;6.27;;;;;;;;;;5096819;28;20210;-56
2020/12/06 04:38:54;;;;;;;7.37;6.43;;;;;;;;;;5105023;28;20468;-57
2020/12/06 04:41:23;;;;;;;7.20;6.50;;;;;;;;;;5106068;28;20830;-56
2020/12/06 04:43:49;;;;;;;8.33;6.37;;;;;;;;;;5108215;28;20262;-56
2020/12/06 04:46:15;;;;;;;7.63;6.50;;;;;;;;;;5107365;28;20818;-56
2020/12/06 04:48:50;;;;;;;7.53;6.80;;;;;;;;;;5102156;28;20768;-56
2020/12/06 04:51:17;;;;;;;7.93;6.13;;;;;;;;;;5102881;28;20527;-56
2020/12/06 04:53:44;;;;;;;6.67;5.97;;;;;;;;;;5097034;28;20626;-55
2020/12/06 04:56:12;;;;;;;8.43;6.97;;;;;;;;;;5111423;28;20929;-55
2020/12/06 04:58:41;;;;;;;7.00;6.10;;;;;;;;;;5125285;27;20436;-55
2020/12/06 05:01:07;;;;;;;7.50;6.30;;;;;;;;;;5089035;27;20853;-57
2020/12/06 05:03:34;;;;;;;8.20;7.27;;;;;;;;;;5099252;28;20462;-56
2020/12/06 05:06:01;;;;;;;7.60;6.60;;;;;;;;;;5096212;28;20469;-56
2020/12/06 05:08:29;;;;;;;8.13;6.83;;;;;;;;;;5098486;28;20433;-56
2020/12/06 05:10:55;;;;;;;10.23;7.40;;;;;;;;;;5100890;28;20445;-56
2020/12/06 05:13:21;;;;;;;7.30;6.60;;;;;;;;;;5091542;28;20943;-55
2020/12/06 05:15:48;;;;;;;8.40;6.80;;;;;;;;;;5108723;28;20448;-55
2020/12/06 05:18:14;;;;;;;9.33;7.50;;;;;;;;;;5075149;28;20493;-56
2020/12/06 05:20:40;;;;;;;7.50;6.40;;;;;;;;;;5111537;28;20425;-55
2020/12/06 05:23:06;;;;;;;7.93;6.70;;;;;;;;;;5099757;28;21112;-56
2020/12/06 05:25:33;;;;;;;8.37;6.87;;;;;;;;;;5072989;28;20425;-55
2020/12/06 05:27:59;;;;;;;8.57;6.87;;;;;;;;;;5105356;27;20221;-58
2020/12/06 05:30:25;;;;;;;8.73;7.30;;;;;;;;;;5115009;27;20413;-56
2020/12/06 05:32:51;;;;;;;8.20;6.70;;;;;;;;;;5096741;28;20180;-55
2020/12/06 05:35:18;;;;;;;8.27;6.73;;;;;;;;;;5096306;28;20471;-57
2020/12/06 05:37:44;;;;;;;7.97;6.63;;;;;;;;;;5097844;28;20919;-59
2020/12/06 05:40:16;;;;;;;9.17;7.13;;;;;;;;;;5104649;28;20574;-56
2020/12/06 05:42:43;;;;;;;9.90;6.90;;;;;;;;;;5099868;28;20980;-55
2020/12/06 05:45:09;;;;;;;8.00;6.80;;;;;;;;;;5095057;28;20910;-55
2020/12/06 05:47:36;;;;;;;9.00;7.23;;;;;;;;;;5099712;28;20453;-55
2020/12/06 05:50:02;;;;;;;9.60;7.73;;;;;;;;;;5080495;28;20457;-55
2020/12/06 05:52:29;;;;;;;7.83;6.60;;;;;;;;;;5095898;28;21420;-55
2020/12/06 05:54:58;;;;;;;8.83;6.67;;;;;;;;;;5099515;28;20424;-56
2020/12/06 05:57:28;;;;;;;8.53;7.10;;;;;;;;;;5119683;28;20431;-55
2020/12/06 05:59:58;;;;;;;8.43;7.03;;;;;;;;;;5117912;27;20824;-55
2020/12/06 06:02:25;;;;;;;7.90;7.00;;;;;;;;;;5100284;28;20469;-58
2020/12/06 06:04:52;;;;;;;8.77;7.53;;;;;;;;;;5095497;28;20435;-55
2020/12/06 06:07:23;;;;;;;8.63;7.30;;;;;;;;;;5096618;28;20538;-58
2020/12/06 06:10:03;;;;;;;9.27;7.50;;;;;;;;;;5109193;28;20420;-57
2020/12/06 06:12:39;;;;;;;9.37;8.30;;;;;;;;;;5117989;28;20476;-56
2020/12/06 06:15:06;;;;;;;11.50;7.27;;;;;;;;;;5115198;28;20508;-55
2020/12/06 06:17:32;;;;;;;8.77;7.03;;;;;;;;;;5105059;28;20452;-55
2020/12/06 06:19:59;;;;;;;10.10;7.43;;;;;;;;;;5102458;28;20501;-55
2020/12/06 06:22:32;;;;;;;9.60;8.10;;;;;;;;;;5102512;28;20886;-56
2020/12/06 06:25:00;;;;;;;8.53;7.30;;;;;;;;;;5113009;28;20879;-56
2020/12/06 06:27:31;;;;;;;11.03;8.07;;;;;;;;;;5092277;28;20997;-55
2020/12/06 06:29:57;;;;;;;9.37;7.77;;;;;;;;;;5117310;28;20401;-55
2020/12/06 06:32:23;;;;;;;8.33;7.30;;;;;;;;;;5102430;28;20530;-58
2020/12/06 06:34:50;;;;;;;8.87;7.77;;;;;;;;;;5098280;28;20467;-56
2020/12/06 06:37:17;;;;;;;10.53;7.87;;;;;;;;;;5084428;28;20442;-56
2020/12/06 06:39:43;;;;;;;11.37;8.37;;;;;;;;;;5104052;28;20437;-55
2020/12/06 06:42:12;;;;;;;11.10;8.70;;;;;;;;;;5117864;28;20401;-55
2020/12/06 06:44:43;;;;;;;10.87;8.30;;;;;;;;;;5111670;28;20413;-56
2020/12/06 06:47:10;;;;;;;11.27;7.80;;;;;;;;;;5104890;28;20492;-58
2020/12/06 06:49:52;;;;;;;10.13;8.00;;;;;;;;;;5101868;28;20438;-55
2020/12/06 06:52:19;;;;;;;9.27;7.77;;;;;;;;;;5099987;28;20429;-57
2020/12/06 06:54:49;;;;;;;9.40;7.77;;;;;;;;;;5107227;28;20429;-56
2020/12/06 06:57:16;;;;;;;10.80;8.00;;;;;;;;;;5125107;27;20518;-56
2020/12/06 06:59:42;;;;;;;9.63;8.00;;;;;;;;;;5123309;27;20486;-55
2020/12/06 07:02:08;;;;;;;9.13;8.23;;;;;;;;;;5087667;28;20468;-57
2020/12/06 07:04:34;;;;;;;10.57;7.77;;;;;;;;;;5104485;27;20249;-56
2020/12/06 07:07:00;;;;;;;10.90;8.33;;;;;;;;;;5102281;28;20500;-55
2020/12/06 07:09:27;;;;;;;10.07;8.30;;;;;;;;;;5104729;28;20435;-56
2020/12/06 07:11:57;;;;;;;9.73;7.67;;;;;;;;;;5110724;28;20466;-55
2020/12/06 07:14:24;;;;;;;11.33;7.40;;;;;;;;;;5094943;28;20773;-56
2020/12/06 07:16:51;;;;;;;10.50;8.53;;;;;;;;;;5102101;28;20433;-55
2020/12/06 07:19:17;;;;;;;12.23;9.30;;;;;;;;;;5101829;28;20432;-58
2020/12/06 07:21:43;;;;;;;11.17;8.20;;;;;;;;;;5109271;28;20439;-56
2020/12/06 07:24:09;;;;;;;10.03;8.43;;;;;;;;;;5100869;28;20187;-57
2020/12/06 07:26:35;;;;;;;10.53;8.47;;;;;;;;;;5110536;28;20464;-57
2020/12/06 07:29:02;;;;;;;13.43;9.00;;;;;;;;;;5112457;28;20423;-56
2020/12/06 07:31:28;;;;;;;11.23;8.97;;;;;;;;;;5112682;28;20444;-56
2020/12/06 07:33:54;;;;;;;9.60;8.20;;;;;;;;;;5108285;27;20882;-56
2020/12/06 07:36:20;;;;;;;10.27;8.43;;;;;;;;;;5112994;28;20425;-56
2020/12/06 07:38:47;;;;;;;9.63;8.17;;;;;;;;;;5113624;28;20463;-56
2020/12/06 07:41:13;;;;;;;9.40;7.97;;;;;;;;;;5113538;28;20920;-55
2020/12/06 07:43:39;;;;;;;10.33;8.83;;;;;;;;;;5107178;28;20416;-55
2020/12/06 07:46:11;;;;;;;12.93;8.57;;;;;;;;;;5112751;28;20463;-55
2020/12/06 07:48:37;;;;;;;9.13;7.60;;;;;;;;;;5111674;27;21461;-55
2020/12/06 07:51:03;;;;;;;13.77;8.83;;;;;;;;;;5093595;28;20463;-56
2020/12/06 07:53:29;;;;;;;8.60;7.63;;;;;;;;;;5110780;28;20175;-57
2020/12/06 07:56:09;;;;;;;9.90;8.33;;;;;;;;;;5112270;28;20421;-55
2020/12/06 07:58:36;;;;;;;10.70;8.37;;;;;;;;;;5108132;28;20424;-56
2020/12/06 08:01:02;;;;;;;8.77;7.87;;;;;;;;;;5112482;28;20401;-55
2020/12/06 08:03:28;;;;;;;9.77;8.77;;;;;;;;;;5111301;28;20428;-58
2020/12/06 08:05:55;;;;;;;11.93;8.87;;;;;;;;;;5111408;28;20425;-55
2020/12/06 08:08:21;;;;;;;12.20;9.33;;;;;;;;;;5112154;28;20424;-56
2020/12/06 08:10:51;;;;;;;9.77;8.77;;;;;;;;;;5093224;28;20412;-57
2020/12/06 08:13:17;;;;;;;9.97;8.17;;;;;;;;;;5110145;27;20425;-56
2020/12/06 08:15:43;;;;;;;11.20;8.07;;;;;;;;;;5112119;28;20428;-56
2020/12/06 08:18:13;;;;;;;10.03;7.77;;;;;;;;;;5111978;28;20507;-55
2020/12/06 08:20:39;;;;;;;12.63;9.57;;;;;;;;;;5110968;28;20515;-55
2020/12/06 08:23:05;;;;;;;9.93;8.60;;;;;;;;;;5112030;28;20428;-55
2020/12/06 08:25:32;;;;;;;11.17;8.80;;;;;;;;;;5110682;28;20429;-58
2020/12/06 08:28:02;;;;;;;10.80;9.33;;;;;;;;;;5111646;27;20453;-57
2020/12/06 08:30:30;;;;;;;11.70;9.00;;;;;;;;;;5106856;28;20434;-58
2020/12/06 08:32:58;;;;;;;11.67;9.50;;;;;;;;;;5109023;28;20421;-55
2020/12/06 08:35:44;;;;;;;11.37;9.27;;;;;;;;;;5111750;27;20502;-59
2020/12/06 08:38:16;;;;;;;14.00;9.97;;;;;;;;;;5101682;28;21135;-56
2020/12/06 08:41:02;;;;;;;11.67;9.53;;;;;;;;;;5098803;28;20421;-56
2020/12/06 08:43:44;;;;;;;12.70;10.07;;;;;;;;;;5095273;28;20888;-56
2020/12/06 08:46:11;;;;;;;12.33;9.83;;;;;;;;;;5104121;28;20456;-56
2020/12/06 08:48:37;;;;;;;10.30;9.07;;;;;;;;;;5108072;28;20966;-58
2020/12/06 08:51:03;;;;;;;13.07;10.27;;;;;;;;;;5097893;27;20452;-56
2020/12/06 08:53:45;;;;;;;10.90;9.27;;;;;;;;;;5104800;28;20511;-55
2020/12/06 08:56:27;;;;;;;12.20;10.00;;;;;;;;;;5107855;28;20412;-56
2020/12/06 08:58:53;;;;;;;12.50;9.80;;;;;;;;;;5096962;28;20432;-57
2020/12/06 09:01:20;;;;;;;12.40;10.40;;;;;;;;;;5096990;28;20451;-56
2020/12/06 09:03:46;;;;;;;12.73;10.47;;;;;;;;;;5102366;28;20413;-55
2020/12/06 09:06:15;;;;;;;13.93;10.00;;;;;;;;;;5105705;28;20826;-56
2020/12/06 09:08:41;;;;;;;13.50;9.63;;;;;;;;;;5108577;28;20424;-56
2020/12/06 09:11:12;;;;;;;13.37;11.13;;;;;;;;;;5108260;27;20433;-57
2020/12/06 09:13:38;;;;;;;14.73;11.80;;;;;;;;;;5097060;28;20418;-57
2020/12/06 09:16:04;;;;;;;17.00;14.27;;;;;;;;;;5107184;28;20424;-57
2020/12/06 09:18:30;;;;;;;16.83;13.47;;;;;;;;;;5106643;28;20420;-57
2020/12/06 09:20:56;;;;;;;20.37;16.53;;;;;;;;;;5098490;27;20182;-57
2020/12/06 09:23:22;;;;;;;19.80;15.17;;;;;;;;;;5097314;28;20613;-57
2020/12/06 09:25:48;;;;;;;18.97;15.60;;;;;;;;;;5098860;28;20186;-57
2020/12/06 09:28:14;;;;;;;20.40;15.70;;;;;;;;;;5106626;27;20467;-57
2020/12/06 09:30:40;;;;;;;22.43;16.23;;;;;;;;;;5105239;28;20452;-56
2020/12/06 09:33:07;;;;;;;21.77;16.90;;;;;;;;;;5096841;28;20180;-56
2020/12/06 09:35:33;;;;;;;25.57;17.03;;;;;;;;;;5095006;28;20418;-56
2020/12/06 09:37:59;;;;;;;19.23;14.83;;;;;;;;;;5098048;28;20927;-56
2020/12/06 09:40:25;;;;;;;21.30;16.23;;;;;;;;;;5099978;28;20511;-56
2020/12/06 09:42:51;;;;;;;18.77;14.67;;;;;;;;;;5106143;28;20420;-57
2020/12/06 09:45:17;;;;;;;27.23;14.67;;;;;;;;;;5110689;28;20613;-57
2020/12/06 09:47:43;;;;;;;21.00;16.87;;;;;;;;;;5110139;28;20455;-58
2020/12/06 09:50:09;;;;;;;22.30;14.67;;;;;;;;;;5103423;28;20187;-57
2020/12/06 09:52:35;;;;;;;19.13;14.57;;;;;;;;;;5110789;27;20432;-58
2020/12/06 09:55:01;;;;;;;20.63;14.63;;;;;;;;;;5102806;28;20178;-57
2020/12/06 09:57:28;;;;;;;21.57;14.27;;;;;;;;;;5109449;28;20269;-64
2020/12/06 09:59:54;;;;;;;16.93;13.13;;;;;;;;;;5109880;28;20224;-57
2020/12/06 10:02:20;;;;;;;23.90;15.40;;;;;;;;;;5103478;28;20461;-58
2020/12/06 10:04:46;;;;;;;20.77;13.87;;;;;;;;;;5107165;28;20440;-58
2020/12/06 10:07:12;;;;;;;19.83;14.50;;;;;;;;;;5104694;28;20213;-58
2020/12/06 10:09:38;;;;;;;18.27;13.50;;;;;;;;;;5109125;28;20197;-58
2020/12/06 10:12:04;;;;;;;17.77;12.77;;;;;;;;;;5107002;28;20250;-58
2020/12/06 10:14:30;;;;;;;19.53;13.27;;;;;;;;;;5108888;28;20194;-59
2020/12/06 10:16:56;;;;;;;21.40;14.47;;;;;;;;;;5106622;28;20183;-58
2020/12/06 10:19:22;;;;;;;19.37;13.67;;;;;;;;;;5106886;28;20213;-58
2020/12/06 10:21:48;;;;;;;16.47;12.47;;;;;;;;;;5108242;28;20942;-58
2020/12/06 10:24:14;;;;;;;18.37;13.40;;;;;;;;;;5106798;28;20420;-58
2020/12/06 10:26:40;;;;;;;19.63;14.63;;;;;;;;;;5096976;28;20225;-59
2020/12/06 10:29:06;;;;;;;21.07;13.47;;;;;;;;;;5095561;28;20417;-58
2020/12/06 10:31:32;;;;;;;19.80;13.97;;;;;;;;;;5097179;28;20445;-57
2020/12/06 10:33:58;;;;;;;18.70;14.30;;;;;;;;;;5108326;28;20911;-57
2020/12/06 10:36:24;;;;;;;19.83;14.70;;;;;;;;;;5102471;28;20417;-58
2020/12/06 10:38:50;;;;;;;18.03;14.13;;;;;;;;;;5108127;28;20914;-60
2020/12/06 10:41:16;;;;;;;18.17;14.07;;;;;;;;;;5099551;28;20183;-58
2020/12/06 10:43:42;;;;;;;18.53;13.47;;;;;;;;;;5103427;28;20418;-58
2020/12/06 10:46:08;;;;;;;17.60;13.87;;;;;;;;;;5093958;28;20479;-58
2020/12/06 10:48:34;;;;;;;18.83;14.03;;;;;;;;;;5096122;28;20425;-58
2020/12/06 10:51:00;;;;;;;20.80;12.70;;;;;;;;;;5103144;28;20828;-60
2020/12/06 10:53:26;;;;;;;23.87;15.43;;;;;;;;;;5099370;28;20421;-58
2020/12/06 10:55:52;;;;;;;20.53;13.90;;;;;;;;;;5101942;28;20680;-58
2020/12/06 10:58:18;;;;;;;17.67;13.37;;;;;;;;;;5104446;28;20433;-59
2020/12/06 11:00:44;;;;;;;18.17;14.23;;;;;;;;;;5110409;28;20405;-58
2020/12/06 11:03:10;;;;;;;19.33;14.93;;;;;;;;;;5091923;28;20228;-60
2020/12/06 11:05:36;;;;;;;19.93;15.30;;;;;;;;;;5089219;28;20478;-59
2020/12/06 11:08:02;;;;;;;23.13;15.13;;;;;;;;;;5105385;28;20257;-59
2020/12/06 11:10:28;;;;;;;21.07;15.43;;;;;;;;;;5095930;28;20471;-60
2020/12/06 11:12:54;;;;;;;19.40;15.33;;;;;;;;;;5094845;28;20176;-59
2020/12/06 11:15:20;;;;;;;21.80;16.20;;;;;;;;;;5076041;28;20413;-59
2020/12/06 11:17:46;;;;;;;20.80;17.30;;;;;;;;;;5097893;28;20416;-60
2020/12/06 11:20:12;;;;;;;16.83;14.03;;;;;;;;;;5106255;28;20240;-59
2020/12/06 11:22:38;;;;;;;18.77;14.50;;;;;;;;;;5101261;28;20414;-59
2020/12/06 11:25:04;;;;;;;21.77;14.77;;;;;;;;;;5105779;28;20198;-59
2020/12/06 11:27:30;;;;;;;17.93;14.93;;;;;;;;;;5108556;27;20217;-61
2020/12/06 11:29:56;;;;;;;17.10;13.57;;;;;;;;;;5085847;28;20418;-62
2020/12/06 11:32:23;;;;;;;19.53;14.63;;;;;;;;;;5099743;28;20456;-60
2020/12/06 11:34:49;;;;;;;19.03;15.30;;;;;;;;;;5107832;27;20432;-59
2020/12/06 11:37:15;;;;;;;18.73;13.57;;;;;;;;;;5111970;28;20750;-61
2020/12/06 11:39:41;;;;;;;19.47;14.67;;;;;;;;;;5092886;28;20459;-60
2020/12/06 11:42:07;;;;;;;18.63;14.53;;;;;;;;;;5091625;28;21076;-59
2020/12/06 11:44:33;;;;;;;19.73;14.90;;;;;;;;;;5092893;28;20184;-60
2020/12/06 11:46:59;;;;;;;17.77;14.50;;;;;;;;;;5088302;28;20211;-59
2020/12/06 11:49:25;;;;;;;18.87;14.80;;;;;;;;;;5101459;28;20314;-60
2020/12/06 11:51:55;;;;;;;18.90;14.50;;;;;;;;;;5109579;28;20416;-61
2020/12/06 11:54:21;;;;;;;19.13;14.40;;;;;;;;;;5111262;27;20893;-60
2020/12/06 11:56:49;;;;;;;19.90;14.27;;;;;;;;;;5084209;28;20425;-60
2020/12/06 11:59:15;;;;;;;17.47;14.47;;;;;;;;;;5112443;28;20480;-61
2020/12/06 12:01:41;;;;;;;16.97;14.00;;;;;;;;;;5109414;27;20464;-61
2020/12/06 12:04:07;;;;;;;18.20;14.30;;;;;;;;;;5109118;28;20490;-60
2020/12/06 12:06:33;;;;;;;18.00;13.97;;;;;;;;;;5105503;28;20217;-59
2020/12/06 12:08:59;;;;;;;19.37;13.23;;;;;;;;;;5103975;28;20207;-62
2020/12/06 12:11:25;;;;;;;18.37;13.50;;;;;;;;;;5095010;28;20620;-61
2020/12/06 12:13:51;;;;;;;19.27;13.50;;;;;;;;;;5100616;28;20431;-60
2020/12/06 12:16:17;;;;;;;17.40;12.43;;;;;;;;;;5090784;28;20456;-59
2020/12/06 12:18:44;;;;;;;17.17;14.23;;;;;;;;;;5096428;28;20438;-61
2020/12/06 12:21:10;;;;;;;18.87;14.90;;;;;;;;;;5098509;28;20425;-59
2020/12/06 12:23:36;;;;;;;18.83;13.73;;;;;;;;;;5102238;27;20562;-59
2020/12/06 12:26:02;;;;;;;18.30;13.50;;;;;;;;;;5100981;28;20225;-60
2020/12/06 12:28:28;;;;;;;17.90;13.93;;;;;;;;;;5105645;28;20888;-59
2020/12/06 12:30:55;;;;;;;17.87;14.20;;;;;;;;;;5096173;28;20449;-62
2020/12/06 12:33:21;;;;;;;21.10;13.53;;;;;;;;;;5108304;27;20837;-60
2020/12/06 12:35:47;;;;;;;24.23;14.63;;;;;;;;;;5110773;28;20417;-60
2020/12/06 12:38:13;;;;;;;22.00;14.80;;;;;;;;;;5108124;28;20182;-60
2020/12/06 12:40:39;;;;;;;18.73;13.87;;;;;;;;;;5078476;28;20425;-60
2020/12/06 12:43:05;;;;;;;22.23;15.17;;;;;;;;;;5111449;28;20474;-60
2020/12/06 12:45:31;;;;;;;20.93;13.70;;;;;;;;;;5111855;28;21233;-59
2020/12/06 12:47:57;;;;;;;21.00;14.03;;;;;;;;;;5112054;28;20194;-59
2020/12/06 12:50:23;;;;;;;20.20;14.87;;;;;;;;;;5110832;28;20408;-60
2020/12/06 12:52:49;;;;;;;17.77;13.97;;;;;;;;;;5091172;28;20425;-60
2020/12/06 12:55:16;;;;;;;23.37;14.37;;;;;;;;;;5112050;28;20673;-60
2020/12/06 12:57:43;;;;;;;17.43;13.50;;;;;;;;;;5089136;28;20274;-61
2020/12/06 13:00:09;;;;;;;18.03;12.57;;;;;;;;;;5111884;28;20428;-58
2020/12/06 13:02:35;;;;;;;98.53;20.10;;;;;;;;;;5106225;27;20477;-59
2020/12/06 13:05:01;;;;;;;45.80;16.37;;;;;;;;;;5111411;28;20179;-58
2020/12/06 13:07:28;;;;;;;49.00;18.50;;;;;;;;;;5110498;28;20257;-58
2020/12/06 13:09:54;;;;;;;46.03;15.80;;;;;;;;;;5111603;28;20462;-58
2020/12/06 13:12:20;;;;;;;19.17;13.77;;;;;;;;;;5112053;28;20429;-59
2020/12/06 13:14:47;;;;;;;21.23;15.50;;;;;;;;;;5107391;28;20207;-58
2020/12/06 13:17:14;;;;;;;49.70;16.67;;;;;;;;;;5111206;27;20186;-59
2020/12/06 13:19:40;;;;;;;18.17;13.80;;;;;;;;;;5118697;27;20455;-59
2020/12/06 13:22:07;;;;;;;20.33;15.23;;;;;;;;;;5102457;28;20916;-58
2020/12/06 13:24:33;;;;;;;20.60;14.33;;;;;;;;;;5084283;28;20840;-59
2020/12/06 13:26:59;;;;;;;42.17;17.23;;;;;;;;;;5091478;28;20959;-59
2020/12/06 13:29:25;;;;;;;38.73;17.50;;;;;;;;;;5102990;28;20428;-59
2020/12/06 13:31:52;;;;;;;72.10;20.17;;;;;;;;;;5104089;27;20202;-58
2020/12/06 13:34:18;;;;;;;80.27;20.13;;;;;;;;;;5109112;27;20511;-57
2020/12/06 13:36:44;;;;;;;54.80;17.87;;;;;;;;;;5109655;28;20507;-58
2020/12/06 13:39:10;;;;;;;40.47;16.70;;;;;;;;;;5109594;28;20443;-58
2020/12/06 13:41:37;;;;;;;24.27;13.77;;;;;;;;;;5110730;28;20429;-54
2020/12/06 13:44:03;;;;;;;27.40;14.47;;;;;;;;;;5111514;28;20958;-54
2020/12/06 13:46:29;;;;;;;21.40;14.13;;;;;;;;;;5099672;28;20814;-54
2020/12/06 13:48:55;;;;;;;16.90;13.87;;;;;;;;;;5103629;28;20436;-54
2020/12/06 13:51:21;;;;;;;18.57;14.23;;;;;;;;;;5103788;27;20437;-55
2020/12/06 13:53:47;;;;;;;20.87;13.27;;;;;;;;;;5104922;28;20174;-57
2020/12/06 13:56:13;;;;;;;30.43;15.70;;;;;;;;;;5102103;28;20794;-57
2020/12/06 13:58:39;;;;;;;29.20;15.13;;;;;;;;;;5105697;28;20191;-57
2020/12/06 14:01:05;;;;;;;25.40;13.97;;;;;;;;;;5099486;28;20509;-58
2020/12/06 14:03:31;;;;;;;21.00;15.30;;;;;;;;;;5098334;28;20428;-58
2020/12/06 14:05:57;;;;;;;27.30;15.00;;;;;;;;;;5087905;28;20201;-57
2020/12/06 14:08:24;;;;;;;18.40;14.73;;;;;;;;;;5111274;28;20278;-59
2020/12/06 14:10:50;;;;;;;23.37;15.73;;;;;;;;;;5104625;28;20183;-57
2020/12/06 14:13:16;;;;;;;21.47;14.87;;;;;;;;;;5105145;28;20433;-58
2020/12/06 14:15:42;;;;;;;16.67;14.43;;;;;;;;;;5096041;28;20518;-58
2020/12/06 14:18:08;;;;;;;20.27;14.83;;;;;;;;;;5103197;28;20241;-57
2020/12/06 14:20:34;;;;;;;20.60;15.80;;;;;;;;;;5111018;28;20174;-57
2020/12/06 14:23:01;;;;;;;19.93;14.83;;;;;;;;;;5110442;28;20425;-59
2020/12/06 14:25:27;;;;;;;20.63;16.50;;;;;;;;;;5096396;28;20443;-58
2020/12/06 14:27:55;;;;;;;19.93;15.40;;;;;;;;;;5088664;28;20468;-58